Terminal Aerodrome Forecast
Issued by NWS Spokane, WA

Home | Current Version | Previous Version | Text Only | Print | Product List | Glossary On
Versions: 1 2 3 4 5 6 7 8 9 10 11 12 13 14 15
000
FTUS46 KOTX 241726
TAFLWS
TAF
KLWS 241726Z 2418/2518 09003KT P6SM VCSH BKN080
      TEMPO 2418/2421 SCT080 SCT090
     FM242200 31005KT P6SM BKN070 BKN120
     FM250300 19004KT P6SM FEW070 BKN100
     FM250800 13003KT P6SM BKN070 BKN150
     FM251200 10004KT P6SM OVC100=

USA.gov is the U.S. government's official web portal to all federal, state and local government web resources and services.